Time;durP1;ratioP1;P1;durP2;ratioP2;P2;SDS_P1;SDS_P2;PMS_P1;PMS_P2;Temp;Humidity;BMP_temperature;BMP_pressure;BME280_temperature;BME280_humidity;BME280_pressure;Samples;Min_cycle;Max_cycle;Signal;HPM_P1;HPM_P2
2023/01/24 10:41:56;;;;;;;;;;;23.30;92.70;;;;;;6174070;22;3494718;-68
2023/01/24 10:44:30;;;;;;;;;;;23.20;93.00;;;;;;6239230;23;19954;-68
2023/01/24 10:47:09;;;;;;;;;;;23.20;93.30;;;;;;6240947;22;19908;-68
2023/01/24 10:49:36;;;;;;;;;;;23.20;93.50;;;;;;6240157;23;19908;-68
2023/01/24 10:52:13;;;;;;;;;;;22.80;92.60;;;;;;6237514;22;19942;-67
2023/01/24 10:54:53;;;;;;;;;;;22.50;92.40;;;;;;6241757;22;19950;-69
2023/01/24 10:57:29;;;;;;;;;;;22.20;92.90;;;;;;6240550;23;19978;-68
2023/01/24 10:59:56;;;;;;;;;;;22.00;93.10;;;;;;6242097;22;19903;-70
2023/01/24 11:02:24;;;;;;;;;;;21.70;92.50;;;;;;6214972;23;19908;-70
2023/01/24 11:05:00;;;;;;;;;;;21.70;93.00;;;;;;6242037;22;20239;-69
2023/01/24 11:07:31;;;;;;;;;;;21.70;93.30;;;;;;6241829;22;19949;-69
2023/01/24 11:10:01;;;;;;;;;;;21.70;93.60;;;;;;6241763;22;19912;-69
2023/01/24 11:12:28;;;;;;;;;;;21.70;93.80;;;;;;6242016;22;19908;-68
2023/01/24 11:14:55;;;;;;;;;;;21.70;93.80;;;;;;6240176;23;19915;-69
2023/01/24 11:17:36;;;;;;;;;;;21.70;93.80;;;;;;6241595;22;20285;-68
2023/01/24 11:20:05;;;;;;;;;;;21.70;93.90;;;;;;6240061;23;20010;-68
2023/01/24 11:22:36;;;;;;;;;;;21.70;94.30;;;;;;6239849;22;19908;-70
2023/01/24 11:25:03;;;;;;;;;;;21.70;94.30;;;;;;6241648;22;20254;-70
2023/01/24 11:27:31;;;;;;;;;;;21.70;94.40;;;;;;6241620;22;19904;-69
2023/01/24 11:30:06;;;;;;;;;;;21.70;94.70;;;;;;6240078;23;19970;-69
2023/01/24 11:32:35;;;;;;;;;;;21.70;94.70;;;;;;6241322;22;19971;-69
2023/01/24 11:35:11;;;;;;;;;;;21.70;94.50;;;;;;6241947;22;20457;-69
2023/01/24 11:37:56;;;;;;;;;;;21.70;94.60;;;;;;6241642;22;20272;-68
2023/01/24 11:40:25;;;;;;;;;;;21.70;94.60;;;;;;6241790;23;20293;-68
2023/01/24 11:43:10;;;;;;;;;;;21.70;94.70;;;;;;6215223;23;20376;-67
2023/01/24 11:45:55;;;;;;;;;;;21.60;94.50;;;;;;6244705;23;19935;-67
2023/01/24 11:48:23;;;;;;;;;;;21.60;95.00;;;;;;6244923;23;20369;-67
2023/01/24 11:50:59;;;;;;;;;;;21.60;94.70;;;;;;6245185;23;19904;-67
2023/01/24 11:53:35;;;;;;;;;;;21.50;94.50;;;;;;6246717;22;19911;-67
2023/01/24 11:56:07;;;;;;;;;;;21.50;94.40;;;;;;6246571;22;19904;-67
2023/01/24 11:58:44;;;;;;;;;;;21.40;94.50;;;;;;6244399;23;19990;-67
2023/01/24 12:01:20;;;;;;;;;;;21.40;94.50;;;;;;6245096;23;20347;-66
2023/01/24 12:03:55;;;;;;;;;;;21.40;94.50;;;;;;6246438;22;19904;-66
2023/01/24 12:06:31;;;;;;;;;;;21.30;94.20;;;;;;6246983;22;19911;-67
2023/01/24 12:09:01;;;;;;;;;;;21.00;92.60;;;;;;6246848;22;20283;-66
2023/01/24 12:11:47;;;;;;;;;;;20.80;92.90;;;;;;6246792;22;20230;-66
2023/01/24 12:14:14;;;;;;;;;;;20.70;92.60;;;;;;6245104;22;19903;-66
2023/01/24 12:16:44;;;;;;;;;;;20.60;92.10;;;;;;6246410;22;19911;-66
2023/01/24 12:19:26;;;;;;;;;;;20.70;92.50;;;;;;6246518;22;19911;-66
2023/01/24 12:21:55;;;;;;;;;;;20.50;91.80;;;;;;6246499;22;19904;-65
2023/01/24 12:24:27;;;;;;;;;;;20.70;92.40;;;;;;6244945;23;20030;-65
2023/01/24 12:26:56;;;;;;;;;;;20.70;92.40;;;;;;6244883;23;19907;-65
2023/01/24 12:29:46;;;;;;;;;;;20.70;91.80;;;;;;6244744;23;19962;-65
2023/01/24 12:32:12;;;;;;;;;;;20.70;92.00;;;;;;6230622;22;20319;-65
2023/01/24 12:34:45;;;;;;;;;;;20.80;92.00;;;;;;6246792;22;20334;-66
2023/01/24 12:37:12;;;;;;;;;;;20.70;90.90;;;;;;6246214;22;21858;-66
2023/01/24 12:39:57;;;;;;;;;;;20.70;90.50;;;;;;6246162;22;20226;-66
2023/01/24 12:42:46;;;;;;;;;;;20.50;90.20;;;;;;6245678;22;19927;-66
2023/01/24 12:45:33;;;;;;;;;;;20.60;90.50;;;;;;6229871;23;19910;-66
2023/01/24 12:48:26;;;;;;;;;;;20.60;90.60;;;;;;6245468;23;19904;-67
2023/01/24 12:50:52;;;;;;;;;;;20.60;91.00;;;;;;6199790;22;19973;-66
2023/01/24 12:53:19;;;;;;;;;;;20.60;90.40;;;;;;6245768;22;19904;-67
2023/01/24 12:55:47;;;;;;;;;;;20.50;90.60;;;;;;6246400;22;19911;-67
2023/01/24 12:58:40;;;;;;;;;;;20.50;90.70;;;;;;6245969;22;20349;-67
2023/01/24 13:01:22;;;;;;;;;;;20.50;91.20;;;;;;6240749;23;19935;-66
2023/01/24 13:04:12;;;;;;;;;;;20.40;91.00;;;;;;6245827;22;19908;-67
2023/01/24 13:06:42;;;;;;;;;;;20.40;90.80;;;;;;6241801;22;20003;-73
2023/01/24 13:09:27;;;;;;;;;;;20.40;90.90;;;;;;6246042;22;19931;-72
2023/01/24 13:11:54;;;;;;;;;;;20.40;90.90;;;;;;6244783;23;19957;-73
2023/01/24 13:14:23;;;;;;;;;;;20.40;90.80;;;;;;6215426;23;20324;-73
2023/01/24 13:17:08;;;;;;;;;;;20.40;91.00;;;;;;6215490;23;19911;-72
2023/01/24 13:19:46;;;;;;;;;;;20.40;90.90;;;;;;6215932;23;20208;-73
2023/01/24 13:22:31;;;;;;;;;;;20.30;91.20;;;;;;6215751;23;19904;-73
2023/01/24 13:25:16;;;;;;;;;;;20.40;91.30;;;;;;6215824;23;20306;-72
2023/01/24 13:28:05;;;;;;;;;;;20.40;91.30;;;;;;6215147;23;19914;-72
2023/01/24 13:30:47;;;;;;;;;;;20.40;91.60;;;;;;6199786;23;19935;-73
2023/01/24 13:33:16;;;;;;;;;;;20.40;91.70;;;;;;6214868;23;19908;-73
2023/01/24 13:36:02;;;;;;;;;;;20.40;91.80;;;;;;6215562;23;20307;-71
2023/01/24 13:38:29;;;;;;;;;;;20.40;91.80;;;;;;6213939;23;20235;-72
2023/01/24 13:41:19;;;;;;;;;;;20.40;92.10;;;;;;6213775;23;19908;-72
2023/01/24 13:44:04;;;;;;;;;;;20.50;91.80;;;;;;6199655;23;19990;-72
2023/01/24 13:46:45;;;;;;;;;;;20.40;92.00;;;;;;6215164;23;19949;-70
2023/01/24 13:49:31;;;;;;;;;;;20.50;91.90;;;;;;6215354;23;20205;-70
2023/01/24 13:52:02;;;;;;;;;;;20.50;91.80;;;;;;6214861;23;19975;-70
2023/01/24 13:54:39;;;;;;;;;;;20.40;91.80;;;;;;6214820;23;20231;-71
2023/01/24 13:57:21;;;;;;;;;;;20.40;91.70;;;;;;6214878;23;20350;-72
2023/01/24 14:00:21;;;;;;;;;;;20.30;91.50;;;;;;6215192;23;19904;-72
2023/01/24 14:02:48;;;;;;;;;;;20.30;91.50;;;;;;6192590;23;19904;-72
2023/01/24 14:05:29;;;;;;;;;;;20.20;91.60;;;;;;6214863;23;19916;-72
2023/01/24 14:07:59;;;;;;;;;;;20.20;91.80;;;;;;6214711;23;19922;-71
2023/01/24 14:10:38;;;;;;;;;;;20.20;92.00;;;;;;6214973;23;19904;-72
2023/01/24 14:13:05;;;;;;;;;;;20.20;91.90;;;;;;6213552;23;19904;-72
2023/01/24 14:15:41;;;;;;;;;;;20.20;92.10;;;;;;6215066;23;19904;-72
2023/01/24 14:18:26;;;;;;;;;;;20.20;92.20;;;;;;6214836;23;19918;-72
2023/01/24 14:20:53;;;;;;;;;;;20.20;92.10;;;;;;6215169;23;20324;-72
2023/01/24 14:23:24;;;;;;;;;;;20.20;92.00;;;;;;6214846;23;19904;-71
2023/01/24 14:25:53;;;;;;;;;;;20.20;92.10;;;;;;6213677;23;19911;-71
2023/01/24 14:28:40;;;;;;;;;;;20.20;91.70;;;;;;6215287;23;20270;-71
2023/01/24 14:31:16;;;;;;;;;;;20.20;91.80;;;;;;6215021;23;20323;-71
2023/01/24 14:34:04;;;;;;;;;;;20.10;91.90;;;;;;6215080;23;20270;-71
2023/01/24 14:36:33;;;;;;;;;;;20.10;91.90;;;;;;6214833;23;19943;-71
2023/01/24 14:39:15;;;;;;;;;;;20.10;91.70;;;;;;6214469;23;19977;-71
2023/01/24 14:41:41;;;;;;;;;;;20.00;91.10;;;;;;6214626;23;19950;-71
2023/01/24 14:44:34;;;;;;;;;;;20.00;91.40;;;;;;6214584;23;19904;-71
2023/01/24 14:47:01;;;;;;;;;;;20.00;91.50;;;;;;6209441;23;19987;-71
2023/01/24 14:49:34;;;;;;;;;;;20.00;91.60;;;;;;6214759;23;20212;-71
2023/01/24 14:52:01;;;;;;;;;;;20.00;91.80;;;;;;6214571;23;19904;-71
2023/01/24 14:54:27;;;;;;;;;;;20.00;92.00;;;;;;6214261;23;19962;-71
2023/01/24 14:56:54;;;;;;;;;;;20.10;92.00;;;;;;6214772;23;19911;-72
2023/01/24 14:59:22;;;;;;;;;;;20.10;91.70;;;;;;6215015;23;19920;-72
2023/01/24 15:01:52;;;;;;;;;;;20.10;91.60;;;;;;6214271;23;20266;-72
2023/01/24 15:04:28;;;;;;;;;;;20.10;91.80;;;;;;6214814;23;19918;-72
2023/01/24 15:07:11;;;;;;;;;;;20.10;91.50;;;;;;6215062;23;19926;-73
2023/01/24 15:09:38;;;;;;;;;;;20.10;91.70;;;;;;6213077;23;19966;-72
2023/01/24 15:12:12;;;;;;;;;;;20.10;92.00;;;;;;6212842;23;19931;-72
2023/01/24 15:14:40;;;;;;;;;;;20.10;91.80;;;;;;6213445;23;20002;-73
2023/01/24 15:17:19;;;;;;;;;;;20.10;91.70;;;;;;6214582;23;20296;-72
2023/01/24 15:19:48;;;;;;;;;;;20.10;91.90;;;;;;6213903;23;20387;-72
2023/01/24 15:22:19;;;;;;;;;;;20.00;91.70;;;;;;6215249;23;19991;-72
2023/01/24 15:24:49;;;;;;;;;;;20.00;91.50;;;;;;6215297;23;19916;-73
2023/01/24 15:27:24;;;;;;;;;;;20.00;91.70;;;;;;6215206;23;20320;-70
2023/01/24 15:30:04;;;;;;;;;;;20.00;91.70;;;;;;6217056;23;19915;-70
2023/01/24 15:32:31;;;;;;;;;;;19.90;91.80;;;;;;6216353;23;20299;-70
2023/01/24 15:35:15;;;;;;;;;;;19.90;91.80;;;;;;6216598;23;19915;-71
2023/01/24 15:37:42;;;;;;;;;;;20.00;91.80;;;;;;6216456;23;19919;-71
2023/01/24 15:40:19;;;;;;;;;;;19.90;91.80;;;;;;6215241;23;20209;-70
2023/01/24 15:45:31;;;;;;;;;;;19.90;92.00;;;;;;6216571;23;19911;-71
2023/01/24 15:48:14;;;;;;;;;;;19.90;92.10;;;;;;6215754;23;19983;-71
2023/01/24 15:51:06;;;;;;;;;;;19.90;92.20;;;;;;6216102;23;19958;-70
2023/01/24 15:53:33;;;;;;;;;;;20.00;92.30;;;;;;6215937;23;19904;-71
2023/01/24 15:56:03;;;;;;;;;;;19.90;92.20;;;;;;6215679;23;19908;-72
2023/01/24 15:58:30;;;;;;;;;;;20.00;92.30;;;;;;6213865;23;20319;-72
2023/01/24 16:00:57;;;;;;;;;;;20.00;92.40;;;;;;6214119;23;19939;-72
2023/01/24 16:03:24;;;;;;;;;;;20.00;92.20;;;;;;6213695;23;19911;-72
2023/01/24 16:05:51;;;;;;;;;;;20.00;92.30;;;;;;6215343;23;20275;-72
2023/01/24 16:08:18;;;;;;;;;;;20.00;92.20;;;;;;6215817;23;19907;-73
2023/01/24 16:10:45;;;;;;;;;;;20.00;92.20;;;;;;6216112;23;19958;-70
2023/01/24 16:13:22;;;;;;;;;;;20.00;92.20;;;;;;6216046;23;19911;-71
2023/01/24 16:15:48;;;;;;;;;;;19.90;92.20;;;;;;6216536;23;20242;-71
2023/01/24 16:18:15;;;;;;;;;;;19.90;92.10;;;;;;6216195;23;19923;-71
2023/01/24 16:20:42;;;;;;;;;;;19.90;91.90;;;;;;6216112;23;19987;-71
2023/01/24 16:23:08;;;;;;;;;;;19.90;91.80;;;;;;6213929;23;20323;-71
2023/01/24 16:25:35;;;;;;;;;;;19.90;91.80;;;;;;6215410;23;20331;-71
2023/01/24 16:28:02;;;;;;;;;;;19.90;91.70;;;;;;6214566;23;20265;-70
2023/01/24 16:30:29;;;;;;;;;;;19.90;91.70;;;;;;6214494;23;20212;-72
2023/01/24 16:32:56;;;;;;;;;;;19.90;91.50;;;;;;6215812;23;19908;-72
2023/01/24 16:35:23;;;;;;;;;;;19.90;91.50;;;;;;6215616;23;19999;-71
2023/01/24 16:37:50;;;;;;;;;;;20.00;91.60;;;;;;6213852;23;20292;-72
2023/01/24 16:40:17;;;;;;;;;;;20.00;91.50;;;;;;6215701;23;19911;-72
2023/01/24 16:42:44;;;;;;;;;;;19.90;91.70;;;;;;6213711;23;19907;-71
2023/01/24 16:45:15;;;;;;;;;;;19.90;91.50;;;;;;6215602;23;20372;-71
2023/01/24 16:47:42;;;;;;;;;;;20.00;91.70;;;;;;6214448;23;19904;-71
2023/01/24 16:50:10;;;;;;;;;;;19.90;91.60;;;;;;6215764;23;20239;-71
2023/01/24 16:52:38;;;;;;;;;;;20.00;91.90;;;;;;6214481;23;19904;-71
2023/01/24 16:55:05;;;;;;;;;;;20.00;92.00;;;;;;6215374;23;19904;-71
2023/01/24 16:57:32;;;;;;;;;;;20.00;91.90;;;;;;6215560;23;19943;-71
2023/01/24 16:59:59;;;;;;;;;;;19.90;91.90;;;;;;6215026;23;19984;-71
2023/01/24 17:02:25;;;;;;;;;;;20.00;92.00;;;;;;6214842;23;19931;-70
2023/01/24 17:04:52;;;;;;;;;;;20.00;91.90;;;;;;6215557;23;19908;-71
2023/01/24 17:07:19;;;;;;;;;;;20.00;91.80;;;;;;6215636;23;19919;-71
2023/01/24 17:09:45;;;;;;;;;;;20.00;91.90;;;;;;6215092;23;19908;-71
2023/01/24 17:12:12;;;;;;;;;;;19.80;91.90;;;;;;6214432;23;19915;-71
2023/01/24 17:14:40;;;;;;;;;;;19.90;92.00;;;;;;6214903;23;19904;-71
2023/01/24 17:17:07;;;;;;;;;;;19.80;91.80;;;;;;6215353;23;19935;-71
2023/01/24 17:19:34;;;;;;;;;;;19.70;91.90;;;;;;6215756;23;19907;-71
2023/01/24 17:22:00;;;;;;;;;;;19.80;92.10;;;;;;6215423;23;19983;-72
2023/01/24 17:24:27;;;;;;;;;;;19.70;92.00;;;;;;6214862;23;19958;-72
2023/01/24 17:26:54;;;;;;;;;;;19.70;92.00;;;;;;6215884;23;19967;-71
2023/01/24 17:29:25;;;;;;;;;;;19.70;92.10;;;;;;6215279;23;19987;-71
2023/01/24 17:31:52;;;;;;;;;;;19.70;92.10;;;;;;6213056;23;19908;-71
2023/01/24 17:34:18;;;;;;;;;;;19.70;92.20;;;;;;6214532;23;19971;-71
2023/01/24 17:36:45;;;;;;;;;;;19.80;92.40;;;;;;6214840;23;19994;-72
2023/01/24 17:39:12;;;;;;;;;;;19.80;92.30;;;;;;6215413;23;19926;-70
2023/01/24 17:41:39;;;;;;;;;;;19.80;92.20;;;;;;6214920;23;19908;-70
2023/01/24 17:44:05;;;;;;;;;;;19.80;92.10;;;;;;6215348;23;19939;-70
2023/01/24 17:46:32;;;;;;;;;;;19.80;92.20;;;;;;6215679;23;20283;-70
2023/01/24 17:48:58;;;;;;;;;;;19.80;92.10;;;;;;6215935;23;20308;-70
2023/01/24 17:51:25;;;;;;;;;;;19.80;92.20;;;;;;6213418;23;20071;-69
2023/01/24 17:53:52;;;;;;;;;;;19.80;91.90;;;;;;6215372;23;19943;-70
2023/01/24 17:56:18;;;;;;;;;;;19.80;92.00;;;;;;6215146;23;19911;-70
